Time;durP1;ratioP1;P1;durP2;ratioP2;P2;SDS_P1;SDS_P2;PMS_P1;PMS_P2;Temp;Humidity;BMP_temperature;BMP_pressure;BME280_temperature;BME280_humidity;BME280_pressure;Samples;Min_cycle;Max_cycle;Signal;HPM_P1;HPM_P2
2022/11/30 00:01:57;;;;;;;72.97;41.17;;;;;;;2.15;71.22;101028.47;4858632;28;100117;-88
2022/11/30 00:04:22;;;;;;;73.00;42.47;;;;;;;2.34;71.30;101058.03;4847612;28;100789;-87
2022/11/30 00:06:48;;;;;;;78.57;43.17;;;;;;;2.40;70.74;101062.41;4858957;28;97259;-87
2022/11/30 00:09:14;;;;;;;72.13;41.07;;;;;;;2.39;70.98;101055.50;4859443;28;96984;-88
2022/11/30 00:11:39;;;;;;;69.17;41.90;;;;;;;2.39;70.89;101046.00;4853534;28;101638;-87
2022/11/30 00:14:05;;;;;;;76.13;41.83;;;;;;;2.15;71.10;101020.69;4855547;28;99814;-87
2022/11/30 00:16:30;;;;;;;66.33;39.60;;;;;;;2.32;71.07;101057.13;4847121;28;98087;-87
2022/11/30 00:18:56;;;;;;;77.00;42.93;;;;;;;2.40;70.57;101063.28;4866854;28;97401;-88
2022/11/30 00:21:23;;;;;;;77.03;42.70;;;;;;;2.30;71.10;101065.72;4860251;28;98273;-87
2022/11/30 00:23:49;;;;;;;72.37;42.03;;;;;;;2.24;71.14;101067.41;4844361;28;99996;-87
2022/11/30 00:26:18;;;;;;;78.03;45.63;;;;;;;2.04;71.01;101036.09;4841509;28;96848;-86
2022/11/30 00:28:46;;;;;;;74.63;42.77;;;;;;;2.20;71.38;101067.34;4852744;28;97127;-88
2022/11/30 00:31:14;;;;;;;80.33;43.47;;;;;;;2.16;71.38;101068.19;4847976;28;101292;-87
2022/11/30 00:33:40;;;;;;;84.03;43.63;;;;;;;2.15;71.23;101069.00;4852488;28;102068;-88
2022/11/30 00:36:15;;;;;;;74.57;42.70;;;;;;;2.04;71.04;101040.41;4856289;28;97253;-86
2022/11/30 00:38:41;;;;;;;75.60;43.47;;;;;;;2.07;71.14;101063.75;4848035;28;96894;-87
2022/11/30 00:41:07;;;;;;;79.33;44.10;;;;;;;1.88;71.73;101047.09;4848321;28;101071;-86
2022/11/30 00:43:32;;;;;;;77.20;44.93;;;;;;;1.95;71.71;101064.47;4847176;28;101705;-87
2022/11/30 00:45:58;;;;;;;79.53;45.43;;;;;;;1.83;71.55;101043.56;4853426;28;97119;-86
2022/11/30 00:48:23;;;;;;;76.10;45.00;;;;;;;1.84;71.50;101057.41;4842837;28;97010;-87
2022/11/30 00:50:49;;;;;;;81.03;47.03;;;;;;;1.90;71.42;101063.53;4849673;28;100843;-87
2022/11/30 00:53:16;;;;;;;76.63;43.53;;;;;;;1.90;71.70;101068.72;4851105;28;101363;-87
2022/11/30 00:55:42;;;;;;;74.03;44.93;;;;;;;2.02;71.25;101075.75;4843402;28;97375;-87
2022/11/30 00:58:08;;;;;;;84.97;47.07;;;;;;;1.96;71.01;101075.69;4853672;28;97320;-86
2022/11/30 01:00:33;;;;;;;80.73;44.67;;;;;;;1.80;71.62;101059.06;4867820;28;101311;-87
2022/11/30 01:02:59;;;;;;;76.33;43.47;;;;;;;1.87;71.78;101083.34;4857312;28;100670;-87
2022/11/30 01:05:25;;;;;;;80.70;44.27;;;;;;;1.91;71.65;101087.69;4849584;28;97013;-87
2022/11/30 01:07:50;;;;;;;83.77;50.13;;;;;;;2.08;70.91;101072.38;4855390;28;97317;-87
2022/11/30 01:10:16;;;;;;;79.37;46.20;;;;;;;1.76;71.24;101054.72;4854079;28;100738;-87
2022/11/30 01:12:41;;;;;;;83.80;48.17;;;;;;;1.77;71.12;101049.53;4859669;28;97864;-87
2022/11/30 01:15:07;;;;;;;82.77;46.63;;;;;;;1.84;71.28;101075.53;4855499;28;97337;-86
2022/11/30 01:17:33;;;;;;;88.07;49.23;;;;;;;1.83;71.38;101077.22;4856416;28;97451;-88
2022/11/30 01:19:59;;;;;;;84.90;45.13;;;;;;;1.61;71.65;101051.91;4829598;28;100958;-85
2022/11/30 01:22:25;;;;;;;79.87;46.87;;;;;;;1.69;71.21;101055.50;4850697;28;101036;-85
2022/11/30 01:24:50;;;;;;;82.03;44.93;;;;;;;1.87;71.24;101084.19;4844629;28;97389;-87
2022/11/30 01:27:16;;;;;;;78.83;46.67;;;;;;;1.87;71.29;101085.94;4840955;28;97314;-87
2022/11/30 01:29:41;;;;;;;88.43;53.00;;;;;;;1.92;70.96;101089.44;4848871;28;97341;-88
2022/11/30 01:32:07;;;;;;;80.33;46.80;;;;;;;1.52;71.16;101057.81;4840331;28;101193;-87
2022/11/30 01:34:33;;;;;;;88.73;49.13;;;;;;;1.65;71.35;101089.91;4841908;28;96992;-87
2022/11/30 01:36:58;;;;;;;81.93;47.23;;;;;;;1.29;72.02;101047.13;4861703;28;97284;-87
2022/11/30 01:39:24;;;;;;;80.87;44.63;;;;;;;1.56;71.99;101094.09;4859117;28;98489;-87
2022/11/30 01:41:49;;;;;;;83.93;49.43;;;;;;;1.75;71.32;101089.22;4845044;28;99618;-88
2022/11/30 01:44:15;;;;;;;95.37;49.23;;;;;;;1.59;71.25;101099.31;4860661;28;97291;-87
2022/11/30 01:46:48;;;;;;;83.67;45.37;;;;;;;1.49;71.64;101089.69;4864651;28;97080;-88
2022/11/30 01:49:18;;;;;;;83.07;44.03;;;;;;;1.53;72.12;101099.25;4839497;28;101418;-87
2022/11/30 01:52:00;;;;;;;80.30;44.93;;;;;;;1.54;71.41;101093.25;4850936;28;102038;-88
2022/11/30 01:54:32;;;;;;;82.43;45.13;;;;;;;1.56;71.33;101104.47;4853332;28;97931;-86
2022/11/30 01:57:08;;;;;;;78.90;44.77;;;;;;;1.54;71.71;101113.03;4833432;28;97235;-88
2022/11/30 01:59:33;;;;;;;76.03;43.43;;;;;;;1.29;71.72;101068.69;4852287;28;98239;-87
2022/11/30 02:01:59;;;;;;;82.40;45.97;;;;;;;1.56;71.30;101109.63;4842385;28;100997;-87
2022/11/30 02:04:29;;;;;;;80.37;43.27;;;;;;;1.40;72.19;101096.44;4831015;28;96906;-88
2022/11/30 02:06:56;;;;;;;77.33;44.30;;;;;;;1.50;71.86;101113.84;4858697;28;97044;-86
2022/11/30 02:09:22;;;;;;;82.10;43.87;;;;;;;1.49;71.46;101104.38;4848713;28;101495;-86
2022/11/30 02:11:48;;;;;;;82.90;45.10;;;;;;;1.42;71.52;101099.91;4858428;28;101985;-88
2022/11/30 02:14:33;;;;;;;85.40;46.67;;;;;;;1.34;72.39;101107.59;4861035;28;96809;-87
2022/11/30 02:17:14;;;;;;;94.63;48.73;;;;;;;1.26;72.91;101111.75;4869329;28;96847;-86
2022/11/30 02:20:18;;;;;;;94.83;50.43;;;;;;;1.17;72.88;101089.19;4862555;28;101537;-87
2022/11/30 02:22:58;;;;;;;91.33;48.60;;;;;;;1.26;72.18;101088.47;4790369;29;101949;-87
2022/11/30 02:25:34;;;;;;;93.90;50.47;;;;;;;1.08;72.70;101081.28;4826302;28;97106;-86
2022/11/30 02:28:30;;;;;;;97.70;51.23;;;;;;;1.15;73.35;101090.00;4858438;28;96732;-86
2022/11/30 02:30:58;;;;;;;100.07;50.50;;;;;;;1.08;73.46;101100.25;4854567;28;100293;-86
2022/11/30 02:33:26;;;;;;;99.17;51.43;;;;;;;1.12;73.60;101104.63;4853201;28;101712;-88
2022/11/30 02:35:53;;;;;;;103.57;51.97;;;;;;;1.13;73.59;101093.44;4850140;28;97527;-88
2022/11/30 02:38:20;;;;;;;92.27;49.63;;;;;;;1.16;73.77;101110.72;4853588;28;97399;-86
2022/11/30 02:40:46;;;;;;;93.27;50.33;;;;;;;1.09;73.60;101111.47;4857736;28;98221;-88
2022/11/30 02:43:12;;;;;;;103.90;52.77;;;;;;;1.15;73.56;101106.38;4859420;28;98456;-87
2022/11/30 02:46:15;;;;;;;101.67;50.07;;;;;;;1.18;73.57;101113.34;4841593;28;97465;-85
2022/11/30 02:49:00;;;;;;;109.40;53.97;;;;;;;1.11;74.01;101109.78;4859646;28;98734;-85
2022/11/30 02:51:27;;;;;;;99.57;52.07;;;;;;;1.05;73.79;101114.84;4836945;28;99963;-86
2022/11/30 02:53:53;;;;;;;108.23;53.80;;;;;;;0.95;73.61;101108.63;4874029;28;98436;-86
2022/11/30 02:56:20;;;;;;;109.97;55.10;;;;;;;0.92;74.69;101118.06;4843911;28;97189;-87
2022/11/30 02:58:46;;;;;;;112.90;56.77;;;;;;;0.75;74.95;101107.41;4845804;28;97238;-87
2022/11/30 03:01:12;;;;;;;109.57;55.17;;;;;;;0.90;74.77;101120.59;4845929;28;101745;-88
2022/11/30 03:03:37;;;;;;;118.67;57.00;;;;;;;0.87;75.10;101129.19;4847792;28;101317;-87
2022/11/30 03:06:03;;;;;;;116.50;57.73;;;;;;;0.79;75.48;101116.97;4842190;28;96836;-87
2022/11/30 03:08:28;;;;;;;114.20;55.87;;;;;;;0.90;75.34;101123.19;4853536;28;97173;-87
2022/11/30 03:10:54;;;;;;;107.23;54.23;;;;;;;0.97;75.19;101129.34;4844752;28;101094;-88
2022/11/30 03:13:19;;;;;;;110.93;55.33;;;;;;;0.75;74.78;101097.91;4855559;28;101094;-87
2022/11/30 03:15:45;;;;;;;107.30;53.47;;;;;;;0.91;75.19;101132.69;4852480;28;97183;-87
2022/11/30 03:18:10;;;;;;;115.80;56.30;;;;;;;0.93;75.30;101138.75;4846537;28;97154;-87
2022/11/30 03:20:40;;;;;;;132.33;62.17;;;;;;;0.72;75.03;101104.75;4857669;28;101477;-88
2022/11/30 03:23:06;;;;;;;118.37;59.47;;;;;;;0.87;75.81;101143.81;4877983;28;96835;-88
2022/11/30 03:25:31;;;;;;;117.10;56.93;;;;;;;0.71;75.42;101119.41;4842349;28;97971;-87
2022/11/30 03:27:59;;;;;;;116.97;57.93;;;;;;;0.87;75.64;101151.56;4848146;28;96943;-86
2022/11/30 03:30:25;;;;;;;112.90;56.67;;;;;;;0.91;75.42;101150.78;4838692;28;101290;-87
2022/11/30 03:32:51;;;;;;;117.63;56.40;;;;;;;0.93;75.65;101150.81;4837340;28;99543;-86
2022/11/30 03:35:17;;;;;;;112.43;54.70;;;;;;;0.62;75.60;101104.59;4845886;28;97392;-85
2022/11/30 03:37:42;;;;;;;114.50;54.43;;;;;;;0.89;75.12;101162.81;4860255;28;97212;-87
2022/11/30 03:40:08;;;;;;;122.53;58.53;;;;;;;0.85;75.58;101164.47;4840219;28;100941;-88
2022/11/30 03:42:33;;;;;;;120.83;56.80;;;;;;;0.77;75.96;101175.50;4843953;28;101174;-86
2022/11/30 03:44:59;;;;;;;123.03;56.33;;;;;;;0.71;76.01;101150.41;4855211;28;97501;-88
2022/11/30 03:47:24;;;;;;;116.27;54.93;;;;;;;0.57;75.90;101131.19;4859785;28;97595;-87
2022/11/30 03:49:50;;;;;;;110.03;56.03;;;;;;;0.76;76.20;101172.06;4860788;28;101854;-87
2022/11/30 03:52:15;;;;;;;113.43;53.20;;;;;;;0.74;76.32;101165.13;4850943;28;99990;-87
2022/11/30 03:54:41;;;;;;;113.97;53.90;;;;;;;0.64;76.77;101164.94;4842676;28;96828;-85
2022/11/30 03:57:06;;;;;;;122.37;57.43;;;;;;;0.77;76.14;101176.38;4847895;28;97112;-87
2022/11/30 03:59:32;;;;;;;129.80;58.13;;;;;;;0.73;75.37;101166.84;4849621;28;101313;-85
2022/11/30 04:01:57;;;;;;;116.07;53.63;;;;;;;0.78;76.32;101185.84;4841579;28;100466;-87
2022/11/30 04:04:23;;;;;;;126.20;55.27;;;;;;;0.71;76.37;101184.00;4855266;28;97581;-87
2022/11/30 04:06:48;;;;;;;116.63;54.27;;;;;;;0.71;76.79;101193.47;4849728;28;97054;-86
2022/11/30 04:09:14;;;;;;;123.97;56.73;;;;;;;0.70;76.40;101186.56;4838670;28;100222;-87
2022/11/30 04:11:39;;;;;;;121.70;54.37;;;;;;;0.58;77.46;101189.75;4866946;28;100966;-87
2022/11/30 04:14:05;;;;;;;118.40;52.93;;;;;;;0.65;76.76;101179.59;4851925;28;97255;-88
2022/11/30 04:16:30;;;;;;;119.80;50.57;;;;;;;0.71;76.77;101190.91;4850699;28;97597;-89
2022/11/30 04:18:56;;;;;;;128.13;54.37;;;;;;;0.83;76.76;101191.13;4858921;28;98286;-86
2022/11/30 04:21:21;;;;;;;118.77;52.93;;;;;;;0.82;76.44;101184.22;4842373;28;101890;-87
2022/11/30 04:23:47;;;;;;;123.47;53.20;;;;;;;0.79;76.18;101179.00;4847644;28;97241;-90
2022/11/30 04:26:14;;;;;;;124.63;54.27;;;;;;;0.90;76.86;101193.88;4849195;28;97049;-87
2022/11/30 04:28:40;;;;;;;111.97;52.00;;;;;;;0.80;76.19;101178.16;4844879;28;101216;-87
2022/11/30 04:31:05;;;;;;;116.57;53.33;;;;;;;0.87;76.11;101191.25;4847244;28;101168;-91
2022/11/30 04:33:31;;;;;;;146.77;64.57;;;;;;;0.92;76.09;101180.09;4854188;28;96944;-88
2022/11/30 04:35:59;;;;;;;128.20;57.77;;;;;;;0.86;76.00;101197.22;4856161;28;97167;-88
2022/11/30 04:38:25;;;;;;;142.83;55.97;;;;;;;0.85;76.08;101182.56;4850170;28;101909;-88
2022/11/30 04:40:51;;;;;;;128.97;57.40;;;;;;;0.75;76.34;101188.38;4850292;28;100801;-89
2022/11/30 04:43:16;;;;;;;120.03;52.77;;;;;;;0.74;76.71;101190.97;4852161;28;99124;-87
2022/11/30 04:45:43;;;;;;;121.63;52.20;;;;;;;0.73;76.68;101184.03;4857393;28;96970;-86
2022/11/30 04:48:08;;;;;;;116.73;50.13;;;;;;;0.60;77.14;101164.84;4842200;28;99672;-87
2022/11/30 04:50:34;;;;;;;126.07;53.37;;;;;;;0.63;77.17;101172.66;4872172;28;101177;-87
2022/11/30 04:53:00;;;;;;;135.33;54.57;;;;;;;0.78;77.05;101185.00;4840625;28;96853;-87
2022/11/30 04:55:26;;;;;;;123.50;52.40;;;;;;;0.53;77.09;101142.31;4846295;28;97547;-87
2022/11/30 04:57:51;;;;;;;120.40;51.70;;;;;;;0.78;77.03;101203.09;4849519;28;101379;-88
2022/11/30 05:00:18;;;;;;;113.23;49.17;;;;;;;0.71;77.11;101215.03;4850852;28;98057;-89
2022/11/30 05:02:44;;;;;;;132.53;54.70;;;;;;;0.58;77.00;101182.91;4856134;28;97105;-86
2022/11/30 05:05:10;;;;;;;141.77;53.73;;;;;;;0.73;77.13;101190.09;4842506;28;97295;-87
2022/11/30 05:07:36;;;;;;;145.73;55.43;;;;;;;0.73;77.11;101196.94;4857842;28;101165;-87
2022/11/30 05:10:01;;;;;;;134.00;52.40;;;;;;;0.71;77.43;101204.69;4844626;28;99868;-88
2022/11/30 05:12:27;;;;;;;127.40;53.47;;;;;;;0.62;77.21;101178.66;4855912;28;97058;-87
2022/11/30 05:14:52;;;;;;;122.27;52.13;;;;;;;0.72;77.19;101206.41;4853024;28;97215;-87
2022/11/30 05:17:18;;;;;;;117.83;49.83;;;;;;;0.69;77.46;101206.34;4850710;28;101568;-86
2022/11/30 05:19:43;;;;;;;130.50;52.17;;;;;;;0.73;77.64;101199.53;4862729;28;97585;-88
2022/11/30 05:22:09;;;;;;;125.17;51.57;;;;;;;0.70;77.38;101207.22;4849942;28;96838;-90
2022/11/30 05:24:34;;;;;;;127.33;48.53;;;;;;;0.68;77.70;101204.63;4861846;28;96971;-87
2022/11/30 05:27:00;;;;;;;135.50;53.17;;;;;;;0.74;77.51;101202.16;4855297;28;101033;-86
2022/11/30 05:29:25;;;;;;;126.53;52.57;;;;;;;0.41;77.74;101168.78;4840464;28;101640;-87
2022/11/30 05:31:51;;;;;;;153.10;60.53;;;;;;;0.64;77.74;101195.06;4857841;28;96937;-87
2022/11/30 05:34:16;;;;;;;115.53;48.33;;;;;;;0.62;78.15;101207.97;4844543;28;97353;-86
2022/11/30 05:36:42;;;;;;;129.37;51.93;;;;;;;0.54;78.54;101209.50;4829973;28;101392;-89
2022/11/30 05:39:07;;;;;;;160.97;55.07;;;;;;;0.69;77.97;101219.28;4837645;28;100102;-88
2022/11/30 05:41:33;;;;;;;124.17;49.13;;;;;;;0.50;78.51;101207.72;4857723;28;97111;-89
2022/11/30 05:43:58;;;;;;;122.67;48.03;;;;;;;0.60;78.35;101226.84;4855874;28;97438;-88
2022/11/30 05:46:24;;;;;;;125.80;51.90;;;;;;;0.70;77.87;101212.41;4855710;28;98322;-88
2022/11/30 05:48:49;;;;;;;118.00;49.60;;;;;;;0.54;77.80;101208.63;4843625;28;100404;-87
2022/11/30 05:51:16;;;;;;;132.57;48.90;;;;;;;0.56;77.92;101201.81;4866498;28;96978;-86
2022/11/30 05:53:43;;;;;;;120.07;49.10;;;;;;;0.56;78.27;101213.00;4848406;28;97372;-89
2022/11/30 05:56:11;;;;;;;119.10;48.07;;;;;;;0.64;78.10;101226.06;4851097;28;101830;-89
2022/11/30 05:58:36;;;;;;;122.53;46.90;;;;;;;0.60;78.54;101221.69;4848391;28;100027;-85
2022/11/30 06:01:02;;;;;;;118.93;48.17;;;;;;;0.68;78.41;101221.00;4842299;28;98156;-85
2022/11/30 06:03:29;;;;;;;115.80;48.23;;;;;;;0.64;78.32;101202.81;4831938;28;97392;-87
2022/11/30 06:05:54;;;;;;;119.73;48.83;;;;;;;0.62;77.68;101205.38;4845482;28;101732;-85
2022/11/30 06:08:20;;;;;;;116.83;47.70;;;;;;;0.64;77.75;101210.56;4841984;28;101645;-82
2022/11/30 06:10:45;;;;;;;116.63;46.83;;;;;;;0.73;77.70;101222.78;4858551;28;97364;-85
2022/11/30 06:13:11;;;;;;;105.70;44.10;;;;;;;0.75;77.81;101229.75;4857819;28;97507;-85
2022/11/30 06:15:37;;;;;;;112.23;45.30;;;;;;;0.77;78.06;101232.38;4840287;28;101777;-82
2022/11/30 06:18:04;;;;;;;101.63;43.30;;;;;;;0.75;77.86;101224.56;4874480;28;98473;-85
2022/11/30 06:20:29;;;;;;;105.43;44.13;;;;;;;0.74;78.05;101237.47;4858177;28;96766;-84
2022/11/30 06:22:56;;;;;;;109.43;42.57;;;;;;;0.55;78.02;101218.13;4840439;28;96831;-84
2022/11/30 06:25:22;;;;;;;117.33;47.13;;;;;;;0.56;78.34;101225.06;4850986;28;101780;-86
2022/11/30 06:27:47;;;;;;;109.40;43.33;;;;;;;0.53;78.90;101227.56;4855027;28;100925;-86
2022/11/30 06:30:13;;;;;;;104.87;42.47;;;;;;;0.63;78.08;101239.84;4849421;28;96803;-84
2022/11/30 06:32:41;;;;;;;117.20;47.60;;;;;;;0.64;78.49;101246.72;4855365;28;97229;-85
2022/11/30 06:35:06;;;;;;;108.43;45.40;;;;;;;0.63;78.61;101238.13;4840015;28;101108;-85
2022/11/30 06:37:34;;;;;;;131.63;49.43;;;;;;;0.94;76.94;101248.22;4853284;28;101400;-85
2022/11/30 06:39:59;;;;;;;120.23;47.13;;;;;;;0.78;77.15;101244.44;4852658;28;97644;-83
2022/11/30 06:42:25;;;;;;;106.03;42.97;;;;;;;0.66;78.40;101263.16;4860090;28;97241;-86
2022/11/30 06:44:50;;;;;;;109.97;43.47;;;;;;;0.65;78.10;101266.59;4850908;28;101356;-87
2022/11/30 06:47:16;;;;;;;112.63;43.47;;;;;;;0.50;78.34;101240.44;4834631;28;100849;-79
2022/11/30 06:49:41;;;;;;;107.17;43.13;;;;;;;0.64;78.71;101263.13;4855177;28;97389;-83
2022/11/30 06:52:07;;;;;;;93.33;40.73;;;;;;;0.62;78.39;101266.53;4863156;28;97203;-87
2022/11/30 06:54:32;;;;;;;99.93;42.90;;;;;;;0.62;78.24;101256.19;4845373;28;101808;-88
2022/11/30 06:56:57;;;;;;;106.47;42.93;;;;;;;0.81;77.51;101260.88;4854289;28;98101;-90
2022/11/30 06:59:23;;;;;;;94.33;44.90;;;;;;;0.67;77.85;101250.28;4848588;28;97839;-86
2022/11/30 07:01:48;;;;;;;109.63;45.37;;;;;;;0.78;77.72;101267.72;4856688;28;97864;-88
2022/11/30 07:04:14;;;;;;;106.70;43.33;;;;;;;0.77;78.02;101264.25;4850786;28;101005;-86
2022/11/30 07:06:39;;;;;;;112.30;46.97;;;;;;;0.79;78.09;101267.75;4841588;28;101499;-86
2022/11/30 07:09:05;;;;;;;118.43;48.03;;;;;;;0.89;77.61;101271.38;4849155;28;97322;-89
2022/11/30 07:11:32;;;;;;;108.20;44.23;;;;;;;0.85;78.14;101267.00;4828629;28;97363;-86
2022/11/30 07:13:57;;;;;;;99.37;41.93;;;;;;;0.80;77.82;101251.41;4822842;28;101438;-86
2022/11/30 07:16:23;;;;;;;98.40;41.93;;;;;;;0.88;77.37;101270.53;4833844;28;100109;-86
2022/11/30 07:18:48;;;;;;;106.80;44.33;;;;;;;0.87;77.39;101260.13;4850446;28;97095;-87
2022/11/30 07:21:14;;;;;;;104.63;43.87;;;;;;;0.96;77.27;101262.94;4857886;28;97319;-84
2022/11/30 07:26:24;;;;;;;93.33;41.90;;;;;;;0.80;78.02;101259.16;4844458;28;101526;-88
2022/11/30 07:28:53;;;;;;;96.67;42.67;;;;;;;0.93;77.78;101280.06;4839720;28;96827;-82
2022/11/30 07:31:21;;;;;;;100.23;42.97;;;;;;;0.90;77.84;101279.19;4838349;28;97000;-87
2022/11/30 07:33:47;;;;;;;100.53;43.87;;;;;;;1.02;76.97;101276.00;4843357;28;100841;-89
2022/11/30 07:36:13;;;;;;;120.50;49.70;;;;;;;1.10;76.83;101284.75;4830817;28;99705;-84
2022/11/30 07:38:39;;;;;;;119.27;52.37;;;;;;;1.03;76.60;101287.19;4836616;28;97577;-87
2022/11/30 07:41:04;;;;;;;108.30;42.97;;;;;;;0.86;77.13;101289.44;4838249;28;96923;-88
2022/11/30 07:43:30;;;;;;;102.73;43.97;;;;;;;0.78;77.87;101288.38;4839333;28;99921;-87
2022/11/30 07:45:55;;;;;;;93.00;41.17;;;;;;;0.88;77.90;101292.94;4858696;28;100585;-89
2022/11/30 07:48:21;;;;;;;98.20;42.40;;;;;;;0.79;77.87;101284.97;4860515;28;96807;-87
2022/11/30 07:50:47;;;;;;;105.40;43.67;;;;;;;0.92;77.41;101301.63;4848827;28;96881;-88
2022/11/30 07:53:13;;;;;;;107.47;42.93;;;;;;;0.97;77.79;101297.41;4849904;28;100113;-84
2022/11/30 07:55:38;;;;;;;103.53;43.73;;;;;;;0.97;77.31;101293.13;4841208;28;100901;-86
2022/11/30 07:58:04;;;;;;;101.60;43.13;;;;;;;1.06;77.24;101298.47;4854076;28;97067;-86
2022/11/30 08:00:29;;;;;;;100.20;43.00;;;;;;;1.07;76.90;101291.56;4853571;28;97238;-88
2022/11/30 08:02:55;;;;;;;109.93;47.50;;;;;;;1.16;76.70;101296.94;4860492;28;98245;-82
2022/11/30 08:05:22;;;;;;;106.77;46.27;;;;;;;0.96;76.07;101275.88;4839963;28;97726;-87
2022/11/30 08:07:52;;;;;;;112.23;45.47;;;;;;;0.90;77.01;101288.63;4851581;28;97624;-83
2022/11/30 08:10:19;;;;;;;103.23;43.53;;;;;;;1.00;77.31;101300.94;4837216;28;98011;-84
2022/11/30 08:12:45;;;;;;;101.30;42.90;;;;;;;1.05;77.21;101298.44;4856537;28;98224;-87
2022/11/30 08:15:10;;;;;;;105.70;47.03;;;;;;;1.15;77.11;101302.09;4856324;28;98184;-85
2022/11/30 08:17:35;;;;;;;104.80;45.17;;;;;;;1.11;76.71;101298.56;4851883;28;98178;-88
2022/11/30 08:20:01;;;;;;;92.17;41.37;;;;;;;1.08;76.63;101296.78;4872181;28;97187;-87
2022/11/30 08:22:26;;;;;;;97.07;42.13;;;;;;;1.11;76.74;101307.19;4856799;28;101799;-88
2022/11/30 08:24:52;;;;;;;95.70;40.97;;;;;;;1.18;76.77;101305.59;4862113;28;100051;-89
2022/11/30 08:27:18;;;;;;;92.30;42.97;;;;;;;1.15;76.65;101305.53;4857984;28;96763;-82
2022/11/30 08:29:44;;;;;;;89.87;39.77;;;;;;;1.21;76.16;101305.66;4859510;28;97380;-83
2022/11/30 08:32:09;;;;;;;97.00;43.93;;;;;;;1.16;75.44;101273.66;4849306;28;101466;-83
2022/11/30 08:34:35;;;;;;;112.20;44.60;;;;;;;0.93;76.47;101273.19;4853274;28;97811;-84
2022/11/30 08:37:00;;;;;;;112.30;50.63;;;;;;;0.94;77.23;101284.44;4851672;28;96942;-86
2022/11/30 08:39:27;;;;;;;98.77;42.97;;;;;;;0.94;77.36;101305.97;4863348;28;98268;-86
2022/11/30 08:41:52;;;;;;;106.47;48.47;;;;;;;0.96;77.61;101287.91;4836780;28;101501;-86
2022/11/30 08:44:18;;;;;;;98.03;44.70;;;;;;;0.99;77.30;101295.72;4857885;28;101665;-84
2022/11/30 08:46:43;;;;;;;94.87;43.00;;;;;;;1.08;77.44;101311.44;4840730;28;98004;-85
2022/11/30 08:49:09;;;;;;;96.13;42.53;;;;;;;1.07;77.21;101299.34;4853205;28;97294;-87
2022/11/30 08:51:35;;;;;;;93.07;41.57;;;;;;;1.11;77.02;101296.00;4840356;28;99722;-87
2022/11/30 08:54:00;;;;;;;98.60;43.57;;;;;;;1.17;76.86;101300.41;4843037;28;101348;-88
2022/11/30 08:56:26;;;;;;;93.67;41.90;;;;;;;1.11;76.46;101321.84;4842358;28;97274;-89
2022/11/30 08:58:54;;;;;;;81.30;39.53;;;;;;;1.05;76.68;101313.97;4846917;28;96978;-85
2022/11/30 09:01:22;;;;;;;86.50;40.93;;;;;;;1.05;76.23;101319.13;4832354;28;100554;-88
2022/11/30 09:03:50;;;;;;;82.10;38.53;;;;;;;1.04;76.77;101313.06;4838165;28;97678;-87
2022/11/30 09:06:18;;;;;;;86.87;40.27;;;;;;;0.97;76.29;101308.63;4847250;28;96796;-87
2022/11/30 09:08:46;;;;;;;81.93;37.20;;;;;;;1.07;76.02;101318.31;4833687;28;97531;-85
2022/11/30 09:11:13;;;;;;;88.87;39.83;;;;;;;1.02;76.45;101317.34;4865286;28;97604;-87
2022/11/30 09:13:40;;;;;;;89.03;40.93;;;;;;;1.11;76.46;101312.38;4831897;28;101340;-87
2022/11/30 09:16:06;;;;;;;79.37;37.77;;;;;;;0.90;77.09;101309.31;4835799;28;97300;-88
2022/11/30 09:18:32;;;;;;;94.07;39.97;;;;;;;0.89;76.97;101320.50;4850978;28;97249;-87
2022/11/30 09:21:11;;;;;;;88.67;40.73;;;;;;;0.89;76.87;101317.94;4875549;28;100333;-88
2022/11/30 09:23:37;;;;;;;94.20;41.53;;;;;;;0.98;76.93;101312.94;4831617;29;101350;-85
2022/11/30 09:26:05;;;;;;;97.63;42.23;;;;;;;0.92;77.13;101314.53;4852472;28;96805;-84
2022/11/30 09:28:31;;;;;;;92.87;40.73;;;;;;;0.92;76.87;101325.75;4856870;28;97486;-85
2022/11/30 09:31:01;;;;;;;97.33;41.83;;;;;;;1.00;76.53;101320.75;4836541;28;101256;-83
2022/11/30 09:33:28;;;;;;;94.60;43.10;;;;;;;0.93;77.07;101324.91;4845072;28;101343;-85
2022/11/30 09:35:58;;;;;;;88.90;40.93;;;;;;;0.99;76.86;101317.28;4859146;28;97333;-84
2022/11/30 09:38:24;;;;;;;95.17;40.17;;;;;;;1.02;76.55;101327.69;4844957;28;97198;-89
2022/11/30 09:40:55;;;;;;;90.53;40.20;;;;;;;0.88;76.41;101300.69;4871906;28;98347;-87
2022/11/30 09:43:26;;;;;;;91.40;39.63;;;;;;;0.86;77.18;101298.06;4832096;28;100418;-88
2022/11/30 09:45:56;;;;;;;86.20;38.27;;;;;;;0.96;76.56;101314.66;4839858;29;97612;-80
2022/11/30 09:48:30;;;;;;;89.37;41.30;;;;;;;1.10;76.15;101312.31;4845920;28;97194;-86
2022/11/30 09:50:59;;;;;;;95.43;40.63;;;;;;;1.07;76.20;101325.19;4853437;28;98497;-85
2022/11/30 09:53:40;;;;;;;86.13;39.57;;;;;;;1.04;75.84;101307.91;4843558;28;101606;-87
2022/11/30 09:56:17;;;;;;;84.30;39.07;;;;;;;1.09;76.25;101321.81;4825199;29;97177;-86
2022/11/30 09:58:52;;;;;;;97.27;42.27;;;;;;;1.17;75.59;101327.16;4847756;28;97196;-88
2022/11/30 10:01:19;;;;;;;98.80;46.57;;;;;;;1.04;75.90;101312.19;4851397;28;101089;-87
2022/11/30 10:03:45;;;;;;;89.50;39.73;;;;;;;1.09;76.44;101341.63;4836835;28;101777;-86
2022/11/30 10:06:18;;;;;;;83.77;37.80;;;;;;;0.89;76.74;101317.94;4844924;28;97215;-88
2022/11/30 10:09:22;;;;;;;104.60;44.33;;;;;;;1.17;76.09;101341.78;4872240;28;97016;-86
2022/11/30 10:12:13;;;;;;;103.13;43.63;;;;;;;1.07;77.09;101333.81;4830407;28;101327;-87
2022/11/30 10:14:48;;;;;;;93.93;41.17;;;;;;;0.94;76.96;101326.66;4855635;28;100622;-87
2022/11/30 10:17:26;;;;;;;86.53;40.60;;;;;;;1.00;76.85;101329.38;4862081;28;97246;-85
2022/11/30 10:20:18;;;;;;;95.23;41.30;;;;;;;0.96;76.77;101319.81;4857856;28;96983;-86
2022/11/30 10:23:07;;;;;;;89.80;37.77;;;;;;;1.03;77.47;101325.97;4866160;28;98121;-84
2022/11/30 10:25:51;;;;;;;87.63;39.77;;;;;;;1.08;77.60;101330.41;4847929;28;101568;-82
2022/11/30 10:28:34;;;;;;;87.07;42.03;;;;;;;1.16;77.37;101325.38;4855638;28;96745;-88
2022/11/30 10:31:00;;;;;;;93.53;41.30;;;;;;;1.25;76.11;101325.59;4865209;28;96885;-85
2022/11/30 10:33:31;;;;;;;84.80;41.43;;;;;;;0.98;76.65;101312.94;4840329;28;101689;-85
2022/11/30 10:36:02;;;;;;;97.80;44.90;;;;;;;1.17;76.45;101313.34;4854266;28;101237;-86
2022/11/30 10:38:32;;;;;;;91.33;41.73;;;;;;;1.01;77.17;101301.78;4840147;28;96776;-85
2022/11/30 10:41:02;;;;;;;93.73;39.63;;;;;;;0.96;77.18;101300.81;4853462;28;97301;-87
2022/11/30 10:43:37;;;;;;;91.50;45.10;;;;;;;1.12;77.41;101321.88;4853185;28;97577;-85
2022/11/30 10:46:03;;;;;;;83.77;39.67;;;;;;;1.11;76.57;101296.84;4863355;28;100133;-86
2022/11/30 10:48:44;;;;;;;78.07;37.13;;;;;;;1.02;75.95;101298.34;4850604;28;96825;-86
2022/11/30 10:51:11;;;;;;;83.68;39.08;;;;;;;1.15;76.48;101315.00;4856661;28;96916;-86
2022/11/30 10:53:37;;;;;;;81.20;40.40;;;;;;;1.30;75.57;101308.41;4834767;28;101547;-87
2022/11/30 10:56:12;;;;;;;79.70;38.63;;;;;;;1.29;75.99;101322.22;4854203;28;98465;-86
2022/11/30 10:58:37;;;;;;;91.70;42.23;;;;;;;1.33;75.93;101321.41;4858197;28;97311;-87
2022/11/30 11:01:27;;;;;;;79.80;38.23;;;;;;;1.40;75.88;101327.59;4860725;28;98493;-87
2022/11/30 11:04:12;;;;;;;90.83;42.33;;;;;;;1.44;75.32;101328.53;4837270;28;101076;-88
2022/11/30 11:06:47;;;;;;;89.00;40.30;;;;;;;1.41;75.89;101331.06;4842205;28;101411;-87
2022/11/30 11:09:31;;;;;;;81.90;40.37;;;;;;;1.36;76.39;101331.81;4852483;28;97118;-89
2022/11/30 11:12:27;;;;;;;90.63;41.87;;;;;;;1.44;75.91;101329.41;4863897;28;97241;-86
2022/11/30 11:15:15;;;;;;;89.13;41.43;;;;;;;1.34;75.70;101336.13;4840877;28;101590;-86
2022/11/30 11:17:40;;;;;;;85.37;41.17;;;;;;;1.17;76.49;101318.50;4855782;28;101362;-87